Time;durP1;ratioP1;P1;durP2;ratioP2;P2;SDS_P1;SDS_P2;PMS_P1;PMS_P2;Temp;Humidity;BMP_temperature;BMP_pressure;BME280_temperature;BME280_humidity;BME280_pressure;Samples;Min_cycle;Max_cycle;Signal;HPM_P1;HPM_P2
2021/07/28 00:02:07;;;;;;;8.73;7.20;;;;;;;19.13;70.34;96993.00;4955288;28;20038;-80
2021/07/28 00:04:37;;;;;;;10.63;6.90;;;;;;;19.07;70.32;96997.66;4954881;28;20434;-80
2021/07/28 00:07:03;;;;;;;15.70;8.40;;;;;;;19.21;70.42;97002.84;4956117;28;20049;-80
2021/07/28 00:09:28;;;;;;;9.63;7.55;;;;;;;19.18;70.08;97006.06;4971624;28;20505;-80
2021/07/28 00:11:54;;;;;;;10.93;7.18;;;;;;;19.17;70.05;97007.13;4977614;28;20500;-80
2021/07/28 00:14:19;;;;;;;8.40;6.88;;;;;;;19.10;69.71;96996.25;4954650;28;20031;-80
2021/07/28 00:16:45;;;;;;;12.32;8.30;;;;;;;19.01;69.85;97003.34;4970845;28;20026;-80
2021/07/28 00:19:16;;;;;;;10.18;7.95;;;;;;;19.10;70.21;97004.16;4955238;28;20057;-80
2021/07/28 00:24:30;;;;;;;10.27;8.13;;;;;;;18.97;70.38;96997.91;4953670;28;20129;-80
2021/07/28 00:26:55;;;;;;;8.57;6.30;;;;;;;18.95;69.72;97004.56;4974242;28;20485;-80
2021/07/28 00:29:21;;;;;;;9.45;6.95;;;;;;;18.91;69.99;97009.66;4958181;28;20033;-80
2021/07/28 00:31:46;;;;;;;10.23;7.60;;;;;;;18.85;69.75;96998.47;4953975;28;20521;-80
2021/07/28 00:34:11;;;;;;;10.82;7.63;;;;;;;18.87;69.69;97000.81;4954912;28;20385;-80
2021/07/28 00:36:37;;;;;;;9.52;7.20;;;;;;;18.80;70.04;97000.41;4955347;28;20355;-80
2021/07/28 00:39:02;;;;;;;11.32;7.50;;;;;;;18.67;69.94;96999.41;4971543;28;20344;-80
2021/07/28 00:41:27;;;;;;;8.85;7.72;;;;;;;18.77;70.01;97001.03;4958964;28;20034;-80
2021/07/28 00:43:53;;;;;;;11.68;8.73;;;;;;;18.74;70.46;96996.34;4958910;28;20041;-80
2021/07/28 00:46:18;;;;;;;10.05;7.10;;;;;;;18.78;69.72;96998.09;4958730;28;20030;-80
2021/07/28 00:48:43;;;;;;;10.23;7.72;;;;;;;18.72;70.35;96994.00;4957066;28;20033;-80
2021/07/28 00:51:09;;;;;;;9.75;7.45;;;;;;;18.63;70.53;96995.81;4974171;28;20500;-80
2021/07/28 00:53:35;;;;;;;11.48;8.15;;;;;;;18.67;70.15;96987.00;4971032;28;20382;-80
2021/07/28 00:56:00;;;;;;;12.57;7.85;;;;;;;18.68;70.14;96991.19;4958164;28;20692;-80
2021/07/28 00:58:26;;;;;;;9.85;8.23;;;;;;;18.69;70.31;96986.69;4971013;28;20520;-80
2021/07/28 01:00:51;;;;;;;11.60;7.80;;;;;;;18.71;70.45;96985.31;4956211;28;20104;-80
2021/07/28 01:03:16;;;;;;;9.85;8.10;;;;;;;18.64;70.35;96984.19;4953878;28;20032;-80
2021/07/28 01:05:42;;;;;;;11.93;8.18;;;;;;;18.66;70.22;96976.75;5005336;28;20081;-80
2021/07/28 01:08:09;;;;;;;11.52;8.45;;;;;;;18.64;70.11;96971.00;4980673;28;20062;-80
2021/07/28 01:10:35;;;;;;;10.45;8.05;;;;;;;18.64;69.97;96971.75;4958627;28;20422;-80
2021/07/28 01:13:03;;;;;;;9.70;7.93;;;;;;;18.51;70.50;96962.84;4956914;28;20065;-80
2021/07/28 01:18:10;;;;;;;11.07;8.43;;;;;;;18.60;70.31;96957.63;4982303;28;20734;-80
2021/07/28 01:20:43;;;;;;;11.38;8.80;;;;;;;18.43;70.59;96960.94;4958688;28;20038;-80
2021/07/28 01:23:25;;;;;;;11.13;8.40;;;;;;;18.32;71.11;96955.13;4980386;28;20038;-80
2021/07/28 01:25:52;;;;;;;12.50;8.88;;;;;;;18.45;70.77;96958.00;4988413;28;20030;-80
2021/07/28 01:28:19;;;;;;;12.73;8.85;;;;;;;18.46;70.71;96959.56;4957574;28;20034;-80
2021/07/28 01:30:46;;;;;;;13.85;9.15;;;;;;;18.55;70.51;96968.31;4972965;28;20478;-80
2021/07/28 01:33:11;;;;;;;11.00;8.35;;;;;;;18.58;70.49;96969.59;4958440;28;20540;-80
2021/07/28 01:35:38;;;;;;;11.07;7.97;;;;;;;18.57;70.75;96960.88;4954879;28;20117;-80
2021/07/28 01:38:05;;;;;;;11.82;8.25;;;;;;;18.68;70.33;96970.09;4958222;28;20169;-79
2021/07/28 01:40:35;;;;;;;14.45;8.43;;;;;;;18.58;70.42;96965.06;4962006;28;20579;-80
2021/07/28 01:43:12;;;;;;;11.27;8.85;;;;;;;18.44;70.65;96961.72;4996740;28;20033;-80
2021/07/28 01:45:37;;;;;;;10.30;7.97;;;;;;;18.57;70.48;96960.88;4956065;28;20038;-80
2021/07/28 01:48:03;;;;;;;11.48;7.00;;;;;;;18.57;70.08;96960.09;4960833;28;20026;-80
2021/07/28 01:50:28;;;;;;;11.27;8.80;;;;;;;18.55;70.15;96963.03;4979949;28;20026;-80
2021/07/28 01:52:54;;;;;;;13.93;8.43;;;;;;;18.55;70.32;96957.75;4956186;28;20540;-80
2021/07/28 01:55:19;;;;;;;10.52;7.78;;;;;;;18.54;69.93;96966.75;4973332;28;20092;-80
2021/07/28 01:57:45;;;;;;;10.85;7.90;;;;;;;18.56;70.12;96977.78;4980358;28;20033;-80
2021/07/28 02:00:10;;;;;;;13.90;8.98;;;;;;;18.38;70.24;96966.34;4954540;28;20027;-80
2021/07/28 02:02:36;;;;;;;10.75;8.13;;;;;;;18.39;70.20;96975.03;4989112;28;20101;-80
2021/07/28 02:05:03;;;;;;;11.23;8.45;;;;;;;18.36;70.03;96963.22;4964281;28;20089;-80
2021/07/28 02:07:29;;;;;;;9.95;7.70;;;;;;;18.36;70.30;96965.09;4974158;28;20050;-80
2021/07/28 02:09:55;;;;;;;11.90;7.97;;;;;;;18.33;70.39;96963.81;4968436;28;20576;-80
2021/07/28 02:12:20;;;;;;;12.57;8.57;;;;;;;18.31;70.38;96958.06;4973893;28;20121;-80
2021/07/28 02:14:46;;;;;;;11.30;8.05;;;;;;;18.33;69.91;96961.19;4956951;28;20022;-80
2021/07/28 02:17:11;;;;;;;10.60;7.95;;;;;;;18.28;69.54;96963.94;4980218;28;20039;-80
2021/07/28 02:19:36;;;;;;;11.50;7.70;;;;;;;18.25;69.78;96962.69;4957568;28;20105;-80
2021/07/28 02:22:02;;;;;;;11.63;7.60;;;;;;;18.23;69.90;96962.22;4980127;28;20034;-80
2021/07/28 02:24:27;;;;;;;10.57;7.85;;;;;;;18.21;70.01;96956.44;4957333;28;20053;-80
2021/07/28 02:26:52;;;;;;;10.73;7.75;;;;;;;18.19;69.83;96957.84;4973816;28;20038;-80
2021/07/28 02:29:18;;;;;;;9.90;7.38;;;;;;;18.12;70.14;96953.75;4973209;28;20030;-80
2021/07/28 02:31:43;;;;;;;11.40;7.32;;;;;;;18.16;69.59;96956.56;4980185;28;20072;-79
2021/07/28 02:34:08;;;;;;;9.30;7.03;;;;;;;18.11;69.84;96952.22;4979753;28;20034;-80
2021/07/28 02:36:34;;;;;;;9.57;6.90;;;;;;;18.06;69.87;96960.22;4973565;28;20027;-81
2021/07/28 02:38:59;;;;;;;10.85;7.85;;;;;;;18.01;70.24;96954.28;4973518;28;20493;-80
2021/07/28 02:41:25;;;;;;;10.68;7.85;;;;;;;18.07;70.27;96961.75;4961106;28;20485;-80
2021/07/28 02:43:50;;;;;;;9.95;7.63;;;;;;;18.08;70.34;96968.59;4972929;28;20038;-80
2021/07/28 02:46:15;;;;;;;10.07;7.90;;;;;;;18.06;69.95;96968.13;4972989;28;20062;-80
2021/07/28 02:48:41;;;;;;;11.45;7.90;;;;;;;17.94;70.24;96962.56;4963872;28;20480;-80
2021/07/28 02:51:06;;;;;;;11.70;7.35;;;;;;;17.93;70.47;96963.66;4972667;28;20065;-80
2021/07/28 02:53:32;;;;;;;11.80;7.35;;;;;;;17.95;70.72;96958.88;4973285;28;20041;-80
2021/07/28 02:55:57;;;;;;;12.32;7.72;;;;;;;18.04;70.29;96962.34;4996551;28;20493;-80
2021/07/28 02:58:22;;;;;;;13.52;7.60;;;;;;;18.01;70.31;96965.59;4972774;28;20042;-80
2021/07/28 03:00:48;;;;;;;11.23;7.45;;;;;;;18.03;70.36;96970.59;4972645;28;20548;-80
2021/07/28 03:03:14;;;;;;;10.95;7.28;;;;;;;17.98;70.37;96965.44;4979270;28;20069;-80
2021/07/28 03:05:39;;;;;;;9.40;7.07;;;;;;;17.92;70.19;96960.28;4956438;28;20077;-79
2021/07/28 03:08:05;;;;;;;8.93;6.93;;;;;;;17.93;70.21;96968.94;4975855;28;20037;-79
2021/07/28 03:10:30;;;;;;;9.98;7.13;;;;;;;17.88;70.39;96971.69;4978504;28;20034;-79
2021/07/28 03:12:55;;;;;;;8.93;6.68;;;;;;;17.83;70.38;96966.50;4956433;28;20429;-79
2021/07/28 03:15:21;;;;;;;9.65;7.63;;;;;;;17.79;70.11;96969.72;4955964;28;20034;-80
2021/07/28 03:17:46;;;;;;;9.68;6.32;;;;;;;17.74;70.32;96958.53;4956677;28;20038;-80
2021/07/28 03:20:14;;;;;;;9.43;7.07;;;;;;;17.74;70.51;96959.28;4956368;28;20496;-80
2021/07/28 03:22:40;;;;;;;11.25;7.85;;;;;;;17.70;70.26;96960.97;4972617;28;20053;-80
2021/07/28 03:25:05;;;;;;;10.35;7.70;;;;;;;17.71;70.35;96967.78;4978587;28;20065;-79
2021/07/28 03:27:31;;;;;;;10.05;6.78;;;;;;;17.73;70.02;96957.72;4956700;28;20030;-79
2021/07/28 03:29:56;;;;;;;10.52;7.15;;;;;;;17.72;70.44;96952.78;4972135;28;20135;-80
2021/07/28 03:32:22;;;;;;;10.27;7.28;;;;;;;17.72;70.33;96964.06;4956250;28;20470;-80
2021/07/28 03:34:47;;;;;;;11.32;7.38;;;;;;;17.68;69.96;96963.09;4962449;28;20141;-80
2021/07/28 03:37:13;;;;;;;10.65;6.82;;;;;;;17.70;70.73;96953.06;4954138;28;20493;-80
2021/07/28 03:39:42;;;;;;;9.95;6.35;;;;;;;17.66;70.33;96957.34;4972323;28;20038;-80
2021/07/28 03:42:13;;;;;;;11.88;7.50;;;;;;;17.61;70.77;96952.19;4961453;28;20083;-81
2021/07/28 03:44:38;;;;;;;10.25;6.68;;;;;;;17.64;70.68;96959.50;4973069;28;20104;-81
2021/07/28 03:47:04;;;;;;;12.15;7.05;;;;;;;17.64;70.77;96962.13;4964456;28;20026;-81
2021/07/28 03:49:29;;;;;;;9.93;7.03;;;;;;;17.64;70.57;96956.88;4958211;28;20029;-81
2021/07/28 03:51:54;;;;;;;10.73;7.47;;;;;;;17.60;70.83;96959.31;4984890;28;20129;-80
2021/07/28 03:54:20;;;;;;;11.20;7.72;;;;;;;17.60;70.91;96950.66;4973921;28;20034;-80
2021/07/28 03:56:45;;;;;;;10.38;7.35;;;;;;;17.58;71.06;96952.78;4957290;28;20123;-81
2021/07/28 03:59:11;;;;;;;8.77;7.38;;;;;;;17.65;70.98;96962.91;4977189;28;20488;-81
2021/07/28 04:01:36;;;;;;;9.23;7.55;;;;;;;17.71;71.07;96967.78;4973792;28;20034;-80
2021/07/28 04:04:01;;;;;;;10.55;7.75;;;;;;;17.72;70.93;96961.44;4963076;28;20121;-81
2021/07/28 04:06:27;;;;;;;10.43;6.80;;;;;;;17.78;71.13;96954.97;4980357;28;20465;-80
2021/07/28 04:08:52;;;;;;;9.95;6.85;;;;;;;17.85;71.04;96951.16;4973268;28;20034;-80
2021/07/28 04:11:18;;;;;;;12.02;7.68;;;;;;;17.92;70.82;96956.84;4974111;28;20049;-80
2021/07/28 04:13:43;;;;;;;11.85;8.20;;;;;;;17.95;71.10;96956.25;4963604;28;20034;-80
2021/07/28 04:16:08;;;;;;;9.70;6.82;;;;;;;18.04;71.18;96958.94;4972656;28;20513;-80
2021/07/28 04:18:34;;;;;;;11.38;8.10;;;;;;;18.06;71.27;96947.06;4957400;28;20073;-80
2021/07/28 04:20:59;;;;;;;12.10;8.40;;;;;;;18.09;71.11;96946.44;4984175;28;20030;-80
2021/07/28 04:23:25;;;;;;;11.02;8.38;;;;;;;18.15;70.99;96945.25;4957409;28;20478;-80
2021/07/28 04:25:50;;;;;;;11.73;8.07;;;;;;;18.20;71.02;96954.91;4957091;28;20590;-80
2021/07/28 04:28:15;;;;;;;14.18;7.82;;;;;;;18.21;71.04;96950.41;4956972;28;20038;-80
2021/07/28 04:30:41;;;;;;;10.80;8.10;;;;;;;18.26;70.92;96943.16;4990828;28;20054;-80
2021/07/28 04:33:09;;;;;;;10.38;8.10;;;;;;;18.28;71.26;96934.94;4989320;28;20117;-81
2021/07/28 04:35:34;;;;;;;11.35;8.45;;;;;;;18.36;71.19;96942.13;4969618;28;20124;-81
2021/07/28 04:38:00;;;;;;;12.30;7.95;;;;;;;18.38;71.00;96942.59;4973272;28;20584;-81
2021/07/28 04:40:26;;;;;;;12.73;7.95;;;;;;;18.47;70.98;96945.31;4973110;28;20030;-81
2021/07/28 04:42:51;;;;;;;12.30;7.63;;;;;;;18.51;71.12;96946.28;4937918;28;20081;-81
2021/07/28 04:45:16;;;;;;;11.77;8.05;;;;;;;18.55;70.92;96957.00;4980379;28;20034;-81
2021/07/28 04:47:42;;;;;;;10.60;8.23;;;;;;;18.58;70.94;96953.75;4975385;28;20049;-81
2021/07/28 04:50:08;;;;;;;10.77;8.30;;;;;;;18.58;70.78;96946.63;4972749;28;20038;-81
2021/07/28 04:52:33;;;;;;;12.57;8.30;;;;;;;18.59;70.73;96944.75;4957202;28;20038;-81
2021/07/28 04:54:58;;;;;;;10.82;8.18;;;;;;;18.66;70.29;96948.53;4972378;28;20125;-81
2021/07/28 04:57:24;;;;;;;11.18;8.48;;;;;;;18.71;70.32;96950.25;4956900;28;20512;-81
2021/07/28 04:59:49;;;;;;;10.88;8.27;;;;;;;18.74;70.72;96948.88;4955857;28;20058;-81
2021/07/28 05:02:15;;;;;;;12.15;8.38;;;;;;;18.76;70.57;96957.25;4955724;28;20045;-80
2021/07/28 05:04:40;;;;;;;12.70;8.23;;;;;;;18.83;70.40;96961.06;4955114;28;20042;-80
2021/07/28 05:07:05;;;;;;;11.77;7.82;;;;;;;18.78;70.16;96960.38;4962400;28;20078;-79
2021/07/28 05:09:31;;;;;;;9.77;8.00;;;;;;;18.78;70.65;96961.16;4962452;28;20025;-80
2021/07/28 05:11:56;;;;;;;10.60;8.13;;;;;;;18.82;70.74;96959.50;4953479;28;20121;-80
2021/07/28 05:14:22;;;;;;;11.90;8.52;;;;;;;18.77;70.83;96954.31;4954871;28;20034;-80
2021/07/28 05:16:47;;;;;;;10.80;8.52;;;;;;;18.88;70.43;96965.41;4955920;28;20045;-79
2021/07/28 05:19:12;;;;;;;13.25;8.70;;;;;;;18.83;71.13;96958.44;4955421;28;20541;-80
2021/07/28 05:21:38;;;;;;;11.88;8.60;;;;;;;18.97;70.67;96957.53;4955675;28;20485;-79
2021/07/28 05:24:03;;;;;;;10.65;8.05;;;;;;;19.04;70.21;96966.59;4987493;28;20046;-79
2021/07/28 05:26:29;;;;;;;10.85;8.18;;;;;;;19.13;70.19;96968.47;4975772;28;20042;-80
2021/07/28 05:28:54;;;;;;;11.68;9.05;;;;;;;19.11;70.79;96976.72;4998130;28;20033;-79
2021/07/28 05:31:20;;;;;;;11.48;8.43;;;;;;;19.14;69.86;96962.91;4986357;28;20049;-79
2021/07/28 05:33:45;;;;;;;12.30;8.40;;;;;;;19.12;70.36;96959.00;4977077;28;20734;-80
2021/07/28 05:36:11;;;;;;;12.05;8.07;;;;;;;19.16;69.94;96960.72;4963990;28;20344;-79
2021/07/28 05:38:36;;;;;;;11.35;7.78;;;;;;;19.19;69.98;96970.69;4977542;28;20030;-80
2021/07/28 05:41:05;;;;;;;9.43;7.63;;;;;;;19.02;70.33;96979.31;4959593;28;20034;-80
2021/07/28 05:43:30;;;;;;;10.70;8.20;;;;;;;19.16;70.23;96976.56;4981990;28;20026;-80
2021/07/28 05:45:56;;;;;;;11.25;8.50;;;;;;;19.11;70.15;96976.72;4958935;28;20038;-80
2021/07/28 05:48:21;;;;;;;9.77;7.43;;;;;;;19.18;70.16;96973.63;4975453;28;20073;-80
2021/07/28 05:50:47;;;;;;;11.77;8.25;;;;;;;19.23;69.89;96982.19;4958820;28;20030;-79
2021/07/28 05:53:12;;;;;;;12.02;8.73;;;;;;;19.18;70.26;96978.91;4975264;28;20049;-80
2021/07/28 05:55:37;;;;;;;12.23;8.43;;;;;;;19.19;70.26;96989.16;4958407;28;20398;-79
2021/07/28 05:58:03;;;;;;;11.73;8.07;;;;;;;19.22;70.35;96982.47;4958883;28;20037;-79
2021/07/28 06:00:29;;;;;;;13.05;8.70;;;;;;;19.24;70.62;96982.94;4965211;28;20100;-80
2021/07/28 06:02:54;;;;;;;11.48;8.95;;;;;;;19.28;70.44;96982.03;4943391;28;20056;-79
2021/07/28 06:05:20;;;;;;;12.60;8.75;;;;;;;19.26;70.27;96986.06;4964752;28;20415;-80
2021/07/28 06:07:47;;;;;;;12.55;8.75;;;;;;;19.28;70.28;96982.03;4958749;28;20640;-79
2021/07/28 06:10:14;;;;;;;12.10;8.70;;;;;;;19.34;70.13;96992.47;4959300;28;20027;-78
2021/07/28 06:12:40;;;;;;;11.82;8.70;;;;;;;19.35;70.24;96994.03;4974961;28;20565;-79
2021/07/28 06:15:06;;;;;;;16.15;9.07;;;;;;;19.27;69.94;96998.94;4956716;28;20029;-80
2021/07/28 06:17:31;;;;;;;11.77;8.27;;;;;;;19.33;70.21;96986.41;4974776;28;20604;-79
2021/07/28 06:19:56;;;;;;;11.95;8.10;;;;;;;19.40;70.35;96991.25;4976809;28;20490;-79
2021/07/28 06:22:23;;;;;;;12.05;8.40;;;;;;;19.42;70.06;96989.84;4974231;28;20037;-79
2021/07/28 06:24:50;;;;;;;12.20;9.00;;;;;;;19.44;69.96;96995.59;4957767;28;20050;-79
2021/07/28 06:27:17;;;;;;;10.93;8.80;;;;;;;19.48;70.10;97006.31;4974492;28;20037;-79
2021/07/28 06:29:43;;;;;;;12.15;8.27;;;;;;;19.45;70.10;96999.81;4974410;28;20041;-79
2021/07/28 06:32:08;;;;;;;12.10;9.48;;;;;;;19.42;70.33;96997.78;4958453;28;20030;-80
2021/07/28 06:34:34;;;;;;;14.13;8.98;;;;;;;19.44;70.26;96997.47;4974276;28;20057;-79
2021/07/28 06:36:59;;;;;;;11.23;8.13;;;;;;;19.54;69.99;96996.41;4958283;28;20053;-79
2021/07/28 06:39:26;;;;;;;11.80;8.23;;;;;;;19.58;69.87;96995.47;4958078;28;20120;-79
2021/07/28 06:41:51;;;;;;;11.50;8.95;;;;;;;19.67;70.48;96992.84;4958448;28;20038;-80
2021/07/28 06:44:16;;;;;;;12.77;9.00;;;;;;;19.81;70.32;96990.13;4957328;28;20026;-79
2021/07/28 06:46:42;;;;;;;11.60;7.85;;;;;;;20.13;70.09;96993.41;4974527;28;20489;-79
2021/07/28 06:49:08;;;;;;;11.77;9.15;;;;;;;20.10;69.68;96996.69;4958366;28;20177;-79
2021/07/28 06:51:34;;;;;;;10.52;8.20;;;;;;;20.21;69.44;96992.66;4964485;28;20105;-79
2021/07/28 06:53:59;;;;;;;9.75;8.13;;;;;;;20.31;69.15;96997.63;4957516;28;20050;-80
2021/07/28 06:56:24;;;;;;;11.73;7.75;;;;;;;20.27;68.77;96994.06;4974843;28;20133;-79
2021/07/28 06:58:50;;;;;;;11.35;8.32;;;;;;;20.25;68.66;96990.16;4956734;28;20019;-79
2021/07/28 07:01:15;;;;;;;12.40;7.95;;;;;;;20.23;68.45;96987.81;4990043;28;20061;-79
2021/07/28 07:03:40;;;;;;;11.15;7.55;;;;;;;20.16;68.53;96980.34;4957140;28;20033;-80
2021/07/28 07:06:06;;;;;;;9.13;7.20;;;;;;;20.29;68.62;96991.06;4973754;28;20065;-79
2021/07/28 07:08:31;;;;;;;10.88;8.45;;;;;;;20.42;68.32;96984.09;4955296;28;20065;-79
2021/07/28 07:10:57;;;;;;;10.18;8.63;;;;;;;20.58;68.77;96995.75;4957689;28;20057;-79
2021/07/28 07:13:23;;;;;;;9.13;8.20;;;;;;;20.67;68.71;96996.53;4957855;28;20144;-79
2021/07/28 07:15:49;;;;;;;9.23;7.40;;;;;;;20.75;67.72;96992.28;4956963;28;20038;-79
2021/07/28 07:18:15;;;;;;;9.02;6.80;;;;;;;20.97;67.88;97006.41;4957553;28;20034;-79
2021/07/28 07:20:40;;;;;;;10.50;6.82;;;;;;;21.00;67.32;96995.97;4979334;28;20193;-79
2021/07/28 07:23:06;;;;;;;8.48;6.43;;;;;;;21.09;67.45;96985.34;4980845;28;20053;-79
2021/07/28 07:25:31;;;;;;;10.18;7.60;;;;;;;21.32;67.47;96984.00;4972304;28;20073;-79
2021/07/28 07:27:57;;;;;;;7.72;6.57;;;;;;;21.35;67.05;96990.53;4973863;28;20114;-79
2021/07/28 07:30:22;;;;;;;7.72;6.93;;;;;;;21.29;66.10;96989.16;4973187;28;20030;-79
2021/07/28 07:35:32;;;;;;;10.27;7.35;;;;;;;21.16;67.18;96976.91;4975625;28;20038;-78
2021/07/28 07:37:57;;;;;;;6.82;6.15;;;;;;;21.29;67.16;96971.41;4941335;28;20031;-78
2021/07/28 07:40:23;;;;;;;8.40;6.45;;;;;;;21.62;66.74;96978.72;4991094;28;20030;-78
2021/07/28 07:42:48;;;;;;;7.32;5.88;;;;;;;21.88;65.55;96973.28;4957402;28;20034;-78
2021/07/28 07:45:13;;;;;;;7.47;5.70;;;;;;;21.94;63.65;96983.69;4972262;28;20104;-79
2021/07/28 07:47:39;;;;;;;8.43;6.00;;;;;;;21.89;65.03;96984.66;4956795;28;20038;-78
2021/07/28 07:50:05;;;;;;;7.18;5.68;;;;;;;21.95;63.64;96987.88;4969219;28;20030;-78
2021/07/28 07:52:30;;;;;;;8.60;6.22;;;;;;;22.00;64.84;96979.75;4970754;28;20061;-78
2021/07/28 07:54:55;;;;;;;7.95;6.28;;;;;;;21.94;64.00;96973.09;4955395;28;20533;-78
2021/07/28 07:57:23;;;;;;;7.45;5.93;;;;;;;22.13;65.98;96981.34;4971662;28;20397;-78
2021/07/28 07:59:49;;;;;;;6.78;5.57;;;;;;;22.28;63.90;96979.22;4972352;28;20042;-78
2021/07/28 08:02:19;;;;;;;6.82;5.75;;;;;;;22.02;64.70;96982.84;4956499;28;20073;-78
2021/07/28 08:04:45;;;;;;;8.60;6.00;;;;;;;22.38;63.88;96989.44;4983222;28;20083;-78
2021/07/28 08:07:10;;;;;;;7.15;5.95;;;;;;;22.15;64.33;96981.81;4972834;28;20034;-78
2021/07/28 08:09:35;;;;;;;7.18;5.93;;;;;;;22.05;63.52;96980.34;4974316;28;20192;-78
2021/07/28 08:12:01;;;;;;;7.90;5.90;;;;;;;22.17;65.25;96976.94;4960613;28;20042;-78
2021/07/28 08:14:26;;;;;;;7.40;6.65;;;;;;;22.37;64.20;96974.63;4974276;28;20033;-78
2021/07/28 08:16:52;;;;;;;6.68;5.25;;;;;;;22.69;63.13;96970.44;4975978;28;20111;-78
2021/07/28 08:19:17;;;;;;;7.53;5.72;;;;;;;22.69;63.17;96967.78;4974087;28;20038;-78
2021/07/28 08:21:44;;;;;;;6.75;5.93;;;;;;;22.99;61.59;96976.34;4972826;28;20105;-78
2021/07/28 08:24:10;;;;;;;7.88;5.90;;;;;;;22.84;61.24;96976.97;4956036;28;20057;-77
2021/07/28 08:26:35;;;;;;;6.45;5.80;;;;;;;22.62;61.68;96975.50;4968035;28;20121;-77
2021/07/28 08:29:03;;;;;;;7.30;6.10;;;;;;;22.51;60.47;96969.81;4976708;28;20160;-78
2021/07/28 08:31:29;;;;;;;7.75;5.85;;;;;;;22.42;62.91;96977.84;4956871;28;20049;-78
2021/07/28 08:33:54;;;;;;;8.57;6.18;;;;;;;22.48;64.16;96978.41;4956088;28;20026;-78
2021/07/28 08:36:19;;;;;;;7.03;5.28;;;;;;;22.43;61.45;96979.41;4984893;28;20038;-78
2021/07/28 08:38:45;;;;;;;7.00;5.85;;;;;;;22.57;61.40;96984.44;4953942;28;20039;-77
2021/07/28 08:41:10;;;;;;;6.68;5.72;;;;;;;22.52;61.63;96982.00;4974342;28;20375;-78
2021/07/28 08:43:37;;;;;;;8.20;6.35;;;;;;;22.46;63.29;96979.88;4959751;28;20125;-77
2021/07/28 08:46:05;;;;;;;5.97;5.38;;;;;;;22.38;62.37;96984.13;4973933;28;20424;-78
2021/07/28 08:48:31;;;;;;;10.35;6.63;;;;;;;22.58;64.58;96980.66;4971802;28;20031;-78
2021/07/28 08:50:58;;;;;;;6.30;5.70;;;;;;;22.56;61.96;96982.88;4956251;28;20053;-78
2021/07/28 08:53:24;;;;;;;7.53;6.10;;;;;;;22.75;62.47;96989.56;4956735;28;20034;-78
2021/07/28 08:55:52;;;;;;;7.57;5.53;;;;;;;22.76;61.37;96980.50;4973022;28;20035;-78
2021/07/28 08:58:18;;;;;;;8.48;5.70;;;;;;;22.97;61.65;96980.44;4972202;28;20030;-79
2021/07/28 09:00:45;;;;;;;6.47;5.20;;;;;;;22.79;60.75;96985.16;4986529;28;20043;-78
2021/07/28 09:03:11;;;;;;;8.65;5.57;;;;;;;23.04;62.02;96985.97;4974602;28;20031;-78
2021/07/28 09:05:41;;;;;;;7.55;5.50;;;;;;;23.00;62.47;96977.88;4976451;28;20046;-78
2021/07/28 09:08:30;;;;;;;7.50;6.00;;;;;;;22.85;61.70;96980.41;4958916;28;20042;-77
2021/07/28 09:11:05;;;;;;;6.35;5.03;;;;;;;22.79;61.82;96983.28;4960564;28;20026;-77
2021/07/28 09:13:48;;;;;;;6.63;6.00;;;;;;;22.99;61.38;96986.19;4975625;28;20030;-78
2021/07/28 09:16:18;;;;;;;6.63;5.93;;;;;;;22.97;60.72;96981.19;4975393;28;20041;-77
2021/07/28 09:18:48;;;;;;;6.38;5.70;;;;;;;22.92;61.68;96981.41;4975881;28;20114;-77
2021/07/28 09:21:20;;;;;;;6.18;5.47;;;;;;;23.00;61.08;96985.84;4972341;28;20470;-77
2021/07/28 09:23:46;;;;;;;6.55;5.47;;;;;;;23.17;60.85;96979.59;4993297;28;20030;-78
2021/07/28 09:26:49;;;;;;;8.07;5.78;;;;;;;22.99;61.75;96983.53;4981458;28;20069;-77
2021/07/28 09:29:13;;;;;;;6.35;5.32;;;;;;;23.23;61.14;96982.81;4987751;28;20385;-77
2021/07/28 09:31:40;;;;;;;6.00;5.40;;;;;;;23.26;61.43;96982.16;4975950;28;20061;-77
2021/07/28 09:34:19;;;;;;;6.28;5.20;;;;;;;23.08;60.76;96986.91;4974471;28;20086;-77
2021/07/28 09:36:45;;;;;;;6.18;5.57;;;;;;;23.15;62.32;96992.44;4989420;28;20529;-77
2021/07/28 09:39:27;;;;;;;7.97;6.10;;;;;;;22.99;62.93;96994.16;4975464;28;20473;-77
2021/07/28 09:41:54;;;;;;;6.35;5.75;;;;;;;23.40;61.96;96999.66;4989787;28;20038;-77
2021/07/28 09:44:23;;;;;;;6.32;5.72;;;;;;;23.31;60.76;97005.84;4973688;28;20034;-77
2021/07/28 09:47:08;;;;;;;6.93;6.20;;;;;;;23.19;60.97;97003.94;4974777;28;20505;-77
2021/07/28 09:49:34;;;;;;;7.75;6.07;;;;;;;23.31;61.22;96999.75;4972873;28;20031;-77
2021/07/28 09:52:15;;;;;;;6.22;5.63;;;;;;;23.25;62.07;96993.88;4958936;28;20038;-77
2021/07/28 09:54:40;;;;;;;8.77;6.32;;;;;;;23.37;59.93;96988.56;4975782;28;20497;-77
2021/07/28 09:57:09;;;;;;;8.73;6.70;;;;;;;23.71;62.16;96991.84;4990758;28;20054;-77
2021/07/28 09:59:35;;;;;;;6.70;5.63;;;;;;;23.96;59.34;96991.06;4966829;28;20050;-77
2021/07/28 10:02:00;;;;;;;6.35;5.70;;;;;;;24.18;58.85;96995.91;4955872;28;20027;-77
2021/07/28 10:04:28;;;;;;;6.13;5.30;;;;;;;24.16;59.87;96986.69;4955169;28;20042;-77
2021/07/28 10:06:54;;;;;;;8.57;6.03;;;;;;;24.64;60.05;96990.28;4959331;28;20041;-77
2021/07/28 10:09:40;;;;;;;6.50;5.90;;;;;;;24.76;59.23;96984.13;4974808;28;20042;-77
2021/07/28 10:12:06;;;;;;;5.45;4.95;;;;;;;24.61;57.42;96986.44;4955349;28;20374;-77
2021/07/28 10:14:34;;;;;;;5.75;5.25;;;;;;;24.45;56.75;96994.34;4988252;28;20056;-78
2021/07/28 10:16:59;;;;;;;6.57;4.97;;;;;;;24.27;59.71;96995.75;4957227;28;20034;-77
2021/07/28 10:19:25;;;;;;;6.00;5.38;;;;;;;24.11;60.57;96988.50;4952427;28;20034;-77
2021/07/28 10:21:51;;;;;;;7.22;5.82;;;;;;;24.29;59.95;96994.28;4973328;28;20099;-77
2021/07/28 10:24:16;;;;;;;6.00;5.05;;;;;;;24.37;59.95;96981.19;4960808;28;20494;-77
2021/07/28 10:26:44;;;;;;;6.60;5.28;;;;;;;24.51;57.86;96986.91;4959854;28;20634;-77
2021/07/28 10:29:14;;;;;;;5.70;4.68;;;;;;;23.93;58.72;96987.19;4961993;28;20035;-77
2021/07/28 10:31:43;;;;;;;6.05;5.03;;;;;;;23.95;59.50;96992.19;5005695;28;20030;-77
2021/07/28 10:34:21;;;;;;;6.18;5.25;;;;;;;23.60;58.88;96985.47;4975315;28;20489;-77
2021/07/28 10:36:48;;;;;;;6.15;5.00;;;;;;;23.79;58.56;96987.53;4958858;28;20113;-77
2021/07/28 10:39:50;;;;;;;7.00;4.80;;;;;;;23.20;60.43;96991.44;4974202;28;20058;-77
2021/07/28 10:42:18;;;;;;;6.80;4.57;;;;;;;23.92;58.55;96994.41;4956516;28;20089;-77
2021/07/28 10:45:05;;;;;;;5.38;4.88;;;;;;;23.85;59.56;96988.88;4986221;28;20046;-77
2021/07/28 10:47:51;;;;;;;5.93;4.63;;;;;;;24.53;57.17;96986.56;4969753;28;20089;-77
2021/07/28 10:50:22;;;;;;;5.97;4.47;;;;;;;25.08;57.86;96981.50;4973693;28;20089;-77
2021/07/28 10:52:52;;;;;;;5.63;4.93;;;;;;;25.42;55.16;96977.38;4994107;28;20052;-77
2021/07/28 10:55:25;;;;;;;5.20;4.65;;;;;;;25.92;53.46;96983.00;4977295;28;20042;-77
2021/07/28 10:57:54;;;;;;;5.78;4.28;;;;;;;26.00;50.87;96971.41;4961855;28;20034;-77
2021/07/28 11:00:43;;;;;;;4.63;4.05;;;;;;;25.80;52.63;96970.56;5001415;28;20038;-77
2021/07/28 11:03:08;;;;;;;4.47;4.07;;;;;;;26.23;53.22;96976.78;4987976;28;20038;-77
2021/07/28 11:05:35;;;;;;;4.32;3.92;;;;;;;26.16;52.75;96971.31;4958706;28;20095;-77
2021/07/28 11:08:15;;;;;;;4.38;3.67;;;;;;;25.74;54.75;96971.97;4979900;28;20061;-77
2021/07/28 11:10:51;;;;;;;3.47;3.10;;;;;;;26.02;51.63;96969.16;4964097;28;20031;-77
2021/07/28 11:13:27;;;;;;;3.67;3.30;;;;;;;25.93;50.20;96968.56;4958221;28;20030;-77
2021/07/28 11:16:06;;;;;;;3.83;2.92;;;;;;;25.55;52.12;96970.03;4958461;28;20030;-77
2021/07/28 11:18:40;;;;;;;3.92;3.50;;;;;;;25.56;53.49;96972.34;4953309;28;20038;-77
2021/07/28 11:21:15;;;;;;;4.00;3.35;;;;;;;25.56;52.71;96977.69;4996910;28;20537;-77
2021/07/28 11:23:48;;;;;;;3.80;3.50;;;;;;;25.58;50.96;96980.00;4962406;28;20038;-77
2021/07/28 11:26:13;;;;;;;4.05;3.08;;;;;;;25.31;50.96;96979.00;4974826;28;20053;-77
2021/07/28 11:28:38;;;;;;;4.60;4.20;;;;;;;25.01;54.43;96990.09;4973071;28;20038;-78
2021/07/28 11:31:10;;;;;;;3.88;3.40;;;;;;;24.64;55.61;96982.31;4977232;28;20030;-78
2021/07/28 11:33:36;;;;;;;5.10;3.55;;;;;;;24.02;58.12;96990.50;4974267;28;20037;-78
2021/07/28 11:36:02;;;;;;;4.70;4.25;;;;;;;23.81;58.90;96981.88;4973863;28;20026;-78
2021/07/28 11:38:31;;;;;;;4.40;3.80;;;;;;;23.31;58.86;96989.13;4962929;28;20461;-78